sensor_id;sensor_type;location;lat;lon;timestamp;P1;durP1;ratioP1;P2;durP2;ratioP2
68216;SDS011;55037;52.354;4.992;2023-04-15T00:01:12;9.70;;;4.13;;
68216;SDS011;55037;52.354;4.992;2023-04-15T00:03:44;7.57;;;4.10;;
68216;SDS011;55037;52.354;4.992;2023-04-15T00:06:13;8.65;;;4.00;;
68216;SDS011;55037;52.354;4.992;2023-04-15T00:08:40;8.07;;;3.90;;
68216;SDS011;55037;52.354;4.992;2023-04-15T00:11:08;8.32;;;3.78;;
68216;SDS011;55037;52.354;4.992;2023-04-15T00:13:35;8.43;;;3.50;;
68216;SDS011;55037;52.354;4.992;2023-04-15T00:16:03;7.82;;;3.70;;
68216;SDS011;55037;52.354;4.992;2023-04-15T00:18:32;7.03;;;3.85;;
68216;SDS011;55037;52.354;4.992;2023-04-15T00:20:59;7.88;;;3.97;;
68216;SDS011;55037;52.354;4.992;2023-04-15T00:23:26;9.65;;;4.20;;
68216;SDS011;55037;52.354;4.992;2023-04-15T00:25:53;7.40;;;4.23;;
68216;SDS011;55037;52.354;4.992;2023-04-15T00:28:21;8.02;;;4.03;;
68216;SDS011;55037;52.354;4.992;2023-04-15T00:30:48;8.57;;;3.92;;
68216;SDS011;55037;52.354;4.992;2023-04-15T00:33:16;7.95;;;3.92;;
68216;SDS011;55037;52.354;4.992;2023-04-15T00:35:44;6.97;;;4.32;;
68216;SDS011;55037;52.354;4.992;2023-04-15T00:38:11;6.90;;;3.70;;
68216;SDS011;55037;52.354;4.992;2023-04-15T00:40:40;7.40;;;4.32;;
68216;SDS011;55037;52.354;4.992;2023-04-15T00:43:07;11.43;;;4.55;;
68216;SDS011;55037;52.354;4.992;2023-04-15T00:45:34;9.00;;;4.75;;
68216;SDS011;55037;52.354;4.992;2023-04-15T00:48:02;8.70;;;4.40;;
68216;SDS011;55037;52.354;4.992;2023-04-15T00:50:30;8.30;;;4.40;;
68216;SDS011;55037;52.354;4.992;2023-04-15T00:52:58;8.52;;;4.13;;
68216;SDS011;55037;52.354;4.992;2023-04-15T00:55:25;9.45;;;4.18;;
68216;SDS011;55037;52.354;4.992;2023-04-15T00:57:53;7.85;;;4.15;;
68216;SDS011;55037;52.354;4.992;2023-04-15T01:00:23;8.57;;;4.07;;
68216;SDS011;55037;52.354;4.992;2023-04-15T01:02:51;7.07;;;3.87;;
68216;SDS011;55037;52.354;4.992;2023-04-15T01:05:18;7.43;;;3.90;;
68216;SDS011;55037;52.354;4.992;2023-04-15T01:07:46;7.90;;;4.13;;
68216;SDS011;55037;52.354;4.992;2023-04-15T01:10:14;7.82;;;3.75;;
68216;SDS011;55037;52.354;4.992;2023-04-15T01:12:42;11.85;;;4.63;;
68216;SDS011;55037;52.354;4.992;2023-04-15T01:15:10;8.63;;;4.77;;
68216;SDS011;55037;52.354;4.992;2023-04-15T01:17:37;8.18;;;4.43;;
68216;SDS011;55037;52.354;4.992;2023-04-15T01:20:06;9.45;;;3.97;;
68216;SDS011;55037;52.354;4.992;2023-04-15T01:22:36;9.68;;;4.30;;
68216;SDS011;55037;52.354;4.992;2023-04-15T01:25:53;6.93;;;4.10;;
68216;SDS011;55037;52.354;4.992;2023-04-15T01:27:58;9.67;;;4.37;;
68216;SDS011;55037;52.354;4.992;2023-04-15T01:30:26;7.30;;;4.10;;
68216;SDS011;55037;52.354;4.992;2023-04-15T01:32:54;15.25;;;4.90;;
68216;SDS011;55037;52.354;4.992;2023-04-15T01:35:21;9.48;;;4.90;;
68216;SDS011;55037;52.354;4.992;2023-04-15T01:37:50;8.57;;;4.10;;
68216;SDS011;55037;52.354;4.992;2023-04-15T01:40:18;8.20;;;4.67;;
68216;SDS011;55037;52.354;4.992;2023-04-15T01:42:45;11.07;;;5.50;;
68216;SDS011;55037;52.354;4.992;2023-04-15T01:45:14;7.75;;;5.00;;
68216;SDS011;55037;52.354;4.992;2023-04-15T01:47:42;9.85;;;5.30;;
68216;SDS011;55037;52.354;4.992;2023-04-15T01:50:09;9.35;;;5.57;;
68216;SDS011;55037;52.354;4.992;2023-04-15T01:52:37;9.07;;;5.37;;
68216;SDS011;55037;52.354;4.992;2023-04-15T01:55:04;10.82;;;4.80;;
68216;SDS011;55037;52.354;4.992;2023-04-15T01:57:33;8.18;;;4.97;;
68216;SDS011;55037;52.354;4.992;2023-04-15T02:00:01;9.63;;;5.55;;
68216;SDS011;55037;52.354;4.992;2023-04-15T02:02:39;8.90;;;5.30;;
68216;SDS011;55037;52.354;4.992;2023-04-15T02:05:06;11.67;;;5.70;;
68216;SDS011;55037;52.354;4.992;2023-04-15T02:07:36;7.70;;;5.25;;
68216;SDS011;55037;52.354;4.992;2023-04-15T02:10:03;10.20;;;5.15;;
68216;SDS011;55037;52.354;4.992;2023-04-15T02:12:31;7.80;;;5.00;;
68216;SDS011;55037;52.354;4.992;2023-04-15T02:14:59;10.18;;;5.32;;
68216;SDS011;55037;52.354;4.992;2023-04-15T02:17:26;13.40;;;5.57;;
68216;SDS011;55037;52.354;4.992;2023-04-15T02:19:54;8.38;;;5.50;;
68216;SDS011;55037;52.354;4.992;2023-04-15T02:22:23;13.55;;;5.70;;
68216;SDS011;55037;52.354;4.992;2023-04-15T02:24:50;9.70;;;4.95;;
68216;SDS011;55037;52.354;4.992;2023-04-15T02:27:18;9.27;;;5.10;;
68216;SDS011;55037;52.354;4.992;2023-04-15T02:29:45;8.97;;;4.87;;
68216;SDS011;55037;52.354;4.992;2023-04-15T02:32:12;8.82;;;5.25;;
68216;SDS011;55037;52.354;4.992;2023-04-15T02:34:40;8.82;;;5.47;;
68216;SDS011;55037;52.354;4.992;2023-04-15T02:37:09;12.52;;;6.03;;
68216;SDS011;55037;52.354;4.992;2023-04-15T02:39:38;12.25;;;5.38;;
68216;SDS011;55037;52.354;4.992;2023-04-15T02:42:05;8.57;;;4.60;;
68216;SDS011;55037;52.354;4.992;2023-04-15T02:44:32;11.00;;;5.65;;
68216;SDS011;55037;52.354;4.992;2023-04-15T02:47:03;9.65;;;5.30;;
68216;SDS011;55037;52.354;4.992;2023-04-15T02:49:32;12.27;;;5.63;;
68216;SDS011;55037;52.354;4.992;2023-04-15T02:51:59;11.60;;;5.30;;
68216;SDS011;55037;52.354;4.992;2023-04-15T02:54:27;8.00;;;5.20;;
68216;SDS011;55037;52.354;4.992;2023-04-15T02:56:54;10.68;;;5.30;;
68216;SDS011;55037;52.354;4.992;2023-04-15T02:59:22;8.55;;;5.10;;
68216;SDS011;55037;52.354;4.992;2023-04-15T03:01:49;7.93;;;5.10;;
68216;SDS011;55037;52.354;4.992;2023-04-15T03:04:17;12.30;;;5.38;;
68216;SDS011;55037;52.354;4.992;2023-04-15T03:06:44;11.43;;;5.50;;
68216;SDS011;55037;52.354;4.992;2023-04-15T03:09:12;10.10;;;5.53;;
68216;SDS011;55037;52.354;4.992;2023-04-15T03:11:39;9.77;;;4.97;;
68216;SDS011;55037;52.354;4.992;2023-04-15T03:14:08;12.45;;;5.50;;
68216;SDS011;55037;52.354;4.992;2023-04-15T03:16:40;11.77;;;5.55;;
68216;SDS011;55037;52.354;4.992;2023-04-15T03:19:07;9.73;;;5.40;;
68216;SDS011;55037;52.354;4.992;2023-04-15T03:21:34;11.63;;;5.80;;
68216;SDS011;55037;52.354;4.992;2023-04-15T03:24:02;9.57;;;5.38;;
68216;SDS011;55037;52.354;4.992;2023-04-15T03:26:29;10.30;;;5.78;;
68216;SDS011;55037;52.354;4.992;2023-04-15T03:29:04;7.72;;;4.80;;
68216;SDS011;55037;52.354;4.992;2023-04-15T03:31:32;11.03;;;5.70;;
68216;SDS011;55037;52.354;4.992;2023-04-15T03:34:00;12.23;;;5.80;;
68216;SDS011;55037;52.354;4.992;2023-04-15T03:36:30;11.02;;;5.88;;
68216;SDS011;55037;52.354;4.992;2023-04-15T03:39:00;11.68;;;6.15;;
68216;SDS011;55037;52.354;4.992;2023-04-15T03:41:30;10.02;;;5.90;;
68216;SDS011;55037;52.354;4.992;2023-04-15T03:43:58;10.77;;;5.97;;
68216;SDS011;55037;52.354;4.992;2023-04-15T03:46:25;11.00;;;5.60;;
68216;SDS011;55037;52.354;4.992;2023-04-15T03:48:53;9.05;;;5.60;;
68216;SDS011;55037;52.354;4.992;2023-04-15T03:51:21;13.48;;;5.78;;
68216;SDS011;55037;52.354;4.992;2023-04-15T03:53:48;10.32;;;6.10;;
68216;SDS011;55037;52.354;4.992;2023-04-15T03:56:15;13.07;;;6.13;;
68216;SDS011;55037;52.354;4.992;2023-04-15T03:58:42;9.93;;;6.00;;
68216;SDS011;55037;52.354;4.992;2023-04-15T04:01:10;11.65;;;6.03;;
68216;SDS011;55037;52.354;4.992;2023-04-15T04:03:37;11.77;;;5.82;;
68216;SDS011;55037;52.354;4.992;2023-04-15T04:06:05;9.70;;;6.05;;
68216;SDS011;55037;52.354;4.992;2023-04-15T04:08:32;9.93;;;5.97;;
68216;SDS011;55037;52.354;4.992;2023-04-15T04:10:59;15.80;;;6.47;;
68216;SDS011;55037;52.354;4.992;2023-04-15T04:13:29;11.75;;;6.45;;
68216;SDS011;55037;52.354;4.992;2023-04-15T04:15:56;9.73;;;6.05;;
68216;SDS011;55037;52.354;4.992;2023-04-15T04:18:24;11.27;;;6.50;;
68216;SDS011;55037;52.354;4.992;2023-04-15T04:20:51;12.13;;;6.53;;
68216;SDS011;55037;52.354;4.992;2023-04-15T04:23:18;10.93;;;6.43;;
68216;SDS011;55037;52.354;4.992;2023-04-15T04:25:46;11.63;;;6.25;;
68216;SDS011;55037;52.354;4.992;2023-04-15T04:28:13;9.90;;;6.45;;
68216;SDS011;55037;52.354;4.992;2023-04-15T04:30:40;9.65;;;5.93;;
68216;SDS011;55037;52.354;4.992;2023-04-15T04:33:07;11.13;;;6.37;;
68216;SDS011;55037;52.354;4.992;2023-04-15T04:35:35;11.63;;;6.35;;
68216;SDS011;55037;52.354;4.992;2023-04-15T04:38:03;10.73;;;5.70;;
68216;SDS011;55037;52.354;4.992;2023-04-15T04:40:30;10.57;;;5.70;;
68216;SDS011;55037;52.354;4.992;2023-04-15T04:42:57;10.07;;;6.13;;
68216;SDS011;55037;52.354;4.992;2023-04-15T04:45:25;10.83;;;5.83;;
68216;SDS011;55037;52.354;4.992;2023-04-15T04:47:52;10.00;;;6.55;;
68216;SDS011;55037;52.354;4.992;2023-04-15T04:50:20;9.85;;;6.22;;
68216;SDS011;55037;52.354;4.992;2023-04-15T04:52:47;10.07;;;6.28;;
68216;SDS011;55037;52.354;4.992;2023-04-15T04:55:14;14.68;;;6.75;;
68216;SDS011;55037;52.354;4.992;2023-04-15T04:57:41;11.30;;;6.37;;
68216;SDS011;55037;52.354;4.992;2023-04-15T05:00:09;10.50;;;6.35;;
68216;SDS011;55037;52.354;4.992;2023-04-15T05:02:36;8.98;;;5.45;;
68216;SDS011;55037;52.354;4.992;2023-04-15T05:05:04;10.70;;;6.10;;
68216;SDS011;55037;52.354;4.992;2023-04-15T05:07:32;13.20;;;7.28;;
68216;SDS011;55037;52.354;4.992;2023-04-15T05:09:59;12.87;;;7.00;;
68216;SDS011;55037;52.354;4.992;2023-04-15T05:12:27;11.20;;;7.30;;
68216;SDS011;55037;52.354;4.992;2023-04-15T05:14:54;11.60;;;7.88;;
68216;SDS011;55037;52.354;4.992;2023-04-15T05:17:21;11.98;;;6.93;;
68216;SDS011;55037;52.354;4.992;2023-04-15T05:19:49;12.85;;;6.57;;
68216;SDS011;55037;52.354;4.992;2023-04-15T05:22:16;10.77;;;6.77;;
68216;SDS011;55037;52.354;4.992;2023-04-15T05:24:43;13.15;;;7.43;;
68216;SDS011;55037;52.354;4.992;2023-04-15T05:27:10;11.13;;;7.90;;
68216;SDS011;55037;52.354;4.992;2023-04-15T05:29:38;16.00;;;7.85;;
68216;SDS011;55037;52.354;4.992;2023-04-15T05:32:05;10.30;;;6.85;;
68216;SDS011;55037;52.354;4.992;2023-04-15T05:34:32;11.70;;;7.13;;
68216;SDS011;55037;52.354;4.992;2023-04-15T05:36:59;11.57;;;7.40;;
68216;SDS011;55037;52.354;4.992;2023-04-15T05:39:27;11.63;;;7.53;;
68216;SDS011;55037;52.354;4.992;2023-04-15T05:41:54;13.90;;;8.35;;
68216;SDS011;55037;52.354;4.992;2023-04-15T05:44:21;12.57;;;8.05;;
68216;SDS011;55037;52.354;4.992;2023-04-15T05:46:48;14.13;;;8.17;;
68216;SDS011;55037;52.354;4.992;2023-04-15T05:49:15;14.15;;;8.15;;
68216;SDS011;55037;52.354;4.992;2023-04-15T05:51:42;14.93;;;8.27;;
68216;SDS011;55037;52.354;4.992;2023-04-15T05:54:10;13.48;;;7.70;;
68216;SDS011;55037;52.354;4.992;2023-04-15T05:56:37;15.85;;;8.45;;
68216;SDS011;55037;52.354;4.992;2023-04-15T05:59:04;12.13;;;7.73;;
68216;SDS011;55037;52.354;4.992;2023-04-15T06:01:32;15.10;;;8.18;;
68216;SDS011;55037;52.354;4.992;2023-04-15T06:03:59;12.70;;;8.55;;
68216;SDS011;55037;52.354;4.992;2023-04-15T06:06:27;13.65;;;8.65;;
68216;SDS011;55037;52.354;4.992;2023-04-15T06:08:54;12.32;;;8.18;;
68216;SDS011;55037;52.354;4.992;2023-04-15T06:11:23;14.07;;;8.13;;
68216;SDS011;55037;52.354;4.992;2023-04-15T06:13:50;12.68;;;7.25;;
68216;SDS011;55037;52.354;4.992;2023-04-15T06:16:17;11.80;;;7.20;;
68216;SDS011;55037;52.354;4.992;2023-04-15T06:18:44;12.05;;;7.45;;
68216;SDS011;55037;52.354;4.992;2023-04-15T06:21:12;13.57;;;7.72;;
68216;SDS011;55037;52.354;4.992;2023-04-15T06:23:39;12.40;;;7.37;;
68216;SDS011;55037;52.354;4.992;2023-04-15T06:26:07;13.68;;;7.90;;
68216;SDS011;55037;52.354;4.992;2023-04-15T06:28:34;11.05;;;7.78;;
68216;SDS011;55037;52.354;4.992;2023-04-15T06:31:01;11.23;;;7.93;;
68216;SDS011;55037;52.354;4.992;2023-04-15T06:33:29;10.52;;;7.38;;
68216;SDS011;55037;52.354;4.992;2023-04-15T06:35:57;12.90;;;8.23;;
68216;SDS011;55037;52.354;4.992;2023-04-15T06:38:24;12.07;;;8.15;;
68216;SDS011;55037;52.354;4.992;2023-04-15T06:40:52;12.13;;;7.88;;
68216;SDS011;55037;52.354;4.992;2023-04-15T06:43:19;13.68;;;8.05;;
68216;SDS011;55037;52.354;4.992;2023-04-15T06:45:46;13.60;;;7.43;;
68216;SDS011;55037;52.354;4.992;2023-04-15T06:48:13;11.97;;;7.10;;
68216;SDS011;55037;52.354;4.992;2023-04-15T06:50:42;12.18;;;6.60;;
68216;SDS011;55037;52.354;4.992;2023-04-15T06:53:09;11.88;;;7.20;;
68216;SDS011;55037;52.354;4.992;2023-04-15T06:55:37;11.48;;;7.40;;
68216;SDS011;55037;52.354;4.992;2023-04-15T06:58:04;12.07;;;6.85;;
68216;SDS011;55037;52.354;4.992;2023-04-15T07:00:31;10.93;;;6.80;;
68216;SDS011;55037;52.354;4.992;2023-04-15T07:02:59;13.40;;;6.13;;
68216;SDS011;55037;52.354;4.992;2023-04-15T07:05:29;10.88;;;6.53;;
68216;SDS011;55037;52.354;4.992;2023-04-15T07:07:58;9.55;;;6.40;;
68216;SDS011;55037;52.354;4.992;2023-04-15T07:10:26;12.07;;;7.07;;
68216;SDS011;55037;52.354;4.992;2023-04-15T07:12:53;11.50;;;7.07;;
68216;SDS011;55037;52.354;4.992;2023-04-15T07:15:20;9.93;;;6.75;;
68216;SDS011;55037;52.354;4.992;2023-04-15T07:17:48;11.02;;;7.55;;
68216;SDS011;55037;52.354;4.992;2023-04-15T07:20:15;12.70;;;7.18;;
68216;SDS011;55037;52.354;4.992;2023-04-15T07:22:42;10.55;;;7.03;;
68216;SDS011;55037;52.354;4.992;2023-04-15T07:25:10;11.35;;;7.65;;
68216;SDS011;55037;52.354;4.992;2023-04-15T07:27:37;9.65;;;6.57;;
68216;SDS011;55037;52.354;4.992;2023-04-15T07:30:04;14.57;;;6.45;;
68216;SDS011;55037;52.354;4.992;2023-04-15T07:32:32;9.32;;;6.60;;
68216;SDS011;55037;52.354;4.992;2023-04-15T07:35:00;10.50;;;7.15;;
68216;SDS011;55037;52.354;4.992;2023-04-15T07:37:28;11.98;;;7.72;;
68216;SDS011;55037;52.354;4.992;2023-04-15T07:39:55;12.35;;;8.05;;
68216;SDS011;55037;52.354;4.992;2023-04-15T07:42:22;12.50;;;7.72;;
68216;SDS011;55037;52.354;4.992;2023-04-15T07:44:50;12.65;;;6.95;;
68216;SDS011;55037;52.354;4.992;2023-04-15T07:47:17;9.35;;;6.47;;
68216;SDS011;55037;52.354;4.992;2023-04-15T07:49:45;8.40;;;5.97;;
68216;SDS011;55037;52.354;4.992;2023-04-15T07:52:12;9.18;;;6.38;;
68216;SDS011;55037;52.354;4.992;2023-04-15T07:54:40;12.02;;;6.45;;
68216;SDS011;55037;52.354;4.992;2023-04-15T07:57:07;10.32;;;6.85;;
68216;SDS011;55037;52.354;4.992;2023-04-15T07:59:34;9.10;;;6.28;;
68216;SDS011;55037;52.354;4.992;2023-04-15T08:02:02;11.40;;;6.57;;
68216;SDS011;55037;52.354;4.992;2023-04-15T08:04:29;10.23;;;6.40;;
68216;SDS011;55037;52.354;4.992;2023-04-15T08:06:57;10.32;;;6.15;;
68216;SDS011;55037;52.354;4.992;2023-04-15T08:09:24;8.77;;;5.32;;
68216;SDS011;55037;52.354;4.992;2023-04-15T08:11:52;9.00;;;5.43;;
68216;SDS011;55037;52.354;4.992;2023-04-15T08:14:20;8.67;;;5.23;;
68216;SDS011;55037;52.354;4.992;2023-04-15T08:16:47;7.43;;;5.07;;
68216;SDS011;55037;52.354;4.992;2023-04-15T08:19:14;6.57;;;5.10;;
68216;SDS011;55037;52.354;4.992;2023-04-15T08:21:42;8.43;;;5.18;;
68216;SDS011;55037;52.354;4.992;2023-04-15T08:24:09;8.30;;;5.40;;
68216;SDS011;55037;52.354;4.992;2023-04-15T08:26:37;7.63;;;5.22;;
68216;SDS011;55037;52.354;4.992;2023-04-15T08:29:04;6.63;;;4.80;;
68216;SDS011;55037;52.354;4.992;2023-04-15T08:31:31;7.78;;;5.03;;
68216;SDS011;55037;52.354;4.992;2023-04-15T08:33:59;7.70;;;4.60;;
68216;SDS011;55037;52.354;4.992;2023-04-15T08:36:26;6.45;;;4.90;;
68216;SDS011;55037;52.354;4.992;2023-04-15T08:38:54;8.38;;;5.15;;
68216;SDS011;55037;52.354;4.992;2023-04-15T08:41:22;8.32;;;5.22;;
68216;SDS011;55037;52.354;4.992;2023-04-15T08:43:58;8.70;;;5.55;;
68216;SDS011;55037;52.354;4.992;2023-04-15T08:46:31;7.25;;;4.82;;
68216;SDS011;55037;52.354;4.992;2023-04-15T08:49:02;8.20;;;5.10;;
68216;SDS011;55037;52.354;4.992;2023-04-15T08:51:31;7.97;;;5.35;;
68216;SDS011;55037;52.354;4.992;2023-04-15T08:53:59;7.55;;;5.22;;
68216;SDS011;55037;52.354;4.992;2023-04-15T08:56:28;8.23;;;5.57;;
68216;SDS011;55037;52.354;4.992;2023-04-15T08:58:58;8.77;;;6.10;;
68216;SDS011;55037;52.354;4.992;2023-04-15T09:01:26;7.22;;;5.45;;
68216;SDS011;55037;52.354;4.992;2023-04-15T09:03:55;8.07;;;6.03;;
68216;SDS011;55037;52.354;4.992;2023-04-15T09:06:22;7.85;;;5.90;;
68216;SDS011;55037;52.354;4.992;2023-04-15T09:08:51;7.28;;;5.30;;
68216;SDS011;55037;52.354;4.992;2023-04-15T09:11:18;7.30;;;5.15;;
68216;SDS011;55037;52.354;4.992;2023-04-15T09:13:48;7.18;;;5.22;;
68216;SDS011;55037;52.354;4.992;2023-04-15T09:16:15;6.65;;;4.93;;
68216;SDS011;55037;52.354;4.992;2023-04-15T09:18:42;6.63;;;4.97;;
68216;SDS011;55037;52.354;4.992;2023-04-15T09:21:11;6.45;;;4.90;;
68216;SDS011;55037;52.354;4.992;2023-04-15T09:23:41;7.10;;;4.60;;
68216;SDS011;55037;52.354;4.992;2023-04-15T09:26:33;6.13;;;4.88;;
68216;SDS011;55037;52.354;4.992;2023-04-15T09:29:03;8.15;;;5.38;;
68216;SDS011;55037;52.354;4.992;2023-04-15T09:31:32;7.83;;;5.30;;
68216;SDS011;55037;52.354;4.992;2023-04-15T09:33:59;6.50;;;4.50;;
68216;SDS011;55037;52.354;4.992;2023-04-15T09:36:27;7.03;;;4.90;;
68216;SDS011;55037;52.354;4.992;2023-04-15T09:38:56;7.03;;;4.88;;
68216;SDS011;55037;52.354;4.992;2023-04-15T09:41:26;6.93;;;4.72;;
68216;SDS011;55037;52.354;4.992;2023-04-15T09:43:54;7.03;;;4.70;;
68216;SDS011;55037;52.354;4.992;2023-04-15T09:46:39;7.43;;;5.00;;
68216;SDS011;55037;52.354;4.992;2023-04-15T09:49:10;7.65;;;5.35;;
68216;SDS011;55037;52.354;4.992;2023-04-15T09:51:38;7.32;;;4.88;;
68216;SDS011;55037;52.354;4.992;2023-04-15T09:54:05;6.70;;;5.03;;
68216;SDS011;55037;52.354;4.992;2023-04-15T09:56:33;7.57;;;5.10;;
68216;SDS011;55037;52.354;4.992;2023-04-15T09:59:04;8.15;;;5.18;;
68216;SDS011;55037;52.354;4.992;2023-04-15T10:01:31;6.43;;;4.60;;
68216;SDS011;55037;52.354;4.992;2023-04-15T10:04:00;8.77;;;5.13;;
68216;SDS011;55037;52.354;4.992;2023-04-15T10:06:30;7.07;;;4.82;;
68216;SDS011;55037;52.354;4.992;2023-04-15T10:08:58;6.10;;;4.23;;
68216;SDS011;55037;52.354;4.992;2023-04-15T10:11:28;6.57;;;4.25;;
68216;SDS011;55037;52.354;4.992;2023-04-15T10:13:57;5.55;;;3.90;;
68216;SDS011;55037;52.354;4.992;2023-04-15T10:16:25;5.43;;;3.83;;
68216;SDS011;55037;52.354;4.992;2023-04-15T10:18:54;5.45;;;4.18;;
68216;SDS011;55037;52.354;4.992;2023-04-15T10:21:23;5.70;;;4.80;;
68216;SDS011;55037;52.354;4.992;2023-04-15T10:23:50;6.38;;;4.75;;
68216;SDS011;55037;52.354;4.992;2023-04-15T10:26:17;6.13;;;4.78;;
68216;SDS011;55037;52.354;4.992;2023-04-15T10:28:45;6.93;;;4.60;;
68216;SDS011;55037;52.354;4.992;2023-04-15T10:31:14;5.95;;;4.30;;
68216;SDS011;55037;52.354;4.992;2023-04-15T10:33:42;7.70;;;4.80;;
68216;SDS011;55037;52.354;4.992;2023-04-15T10:36:11;5.72;;;4.30;;
68216;SDS011;55037;52.354;4.992;2023-04-15T10:41:12;6.28;;;4.40;;
68216;SDS011;55037;52.354;4.992;2023-04-15T10:43:56;7.07;;;4.38;;
68216;SDS011;55037;52.354;4.992;2023-04-15T10:46:37;6.07;;;3.83;;
68216;SDS011;55037;52.354;4.992;2023-04-15T10:49:24;7.38;;;4.70;;
68216;SDS011;55037;52.354;4.992;2023-04-15T10:51:52;6.28;;;4.20;;
68216;SDS011;55037;52.354;4.992;2023-04-15T10:56:51;7.07;;;4.15;;
68216;SDS011;55037;52.354;4.992;2023-04-15T10:59:33;5.90;;;3.67;;
68216;SDS011;55037;52.354;4.992;2023-04-15T11:07:37;6.45;;;3.70;;
68216;SDS011;55037;52.354;4.992;2023-04-15T11:12:40;5.40;;;3.50;;
68216;SDS011;55037;52.354;4.992;2023-04-15T11:18:11;5.75;;;4.13;;
68216;SDS011;55037;52.354;4.992;2023-04-15T11:20:39;6.65;;;3.40;;
68216;SDS011;55037;52.354;4.992;2023-04-15T11:23:08;6.63;;;3.40;;
68216;SDS011;55037;52.354;4.992;2023-04-15T11:25:41;5.00;;;3.97;;
68216;SDS011;55037;52.354;4.992;2023-04-15T11:28:10;6.93;;;3.22;;
68216;SDS011;55037;52.354;4.992;2023-04-15T11:30:38;4.93;;;3.33;;
68216;SDS011;55037;52.354;4.992;2023-04-15T11:33:06;4.78;;;3.33;;
68216;SDS011;55037;52.354;4.992;2023-04-15T11:35:35;6.45;;;3.58;;
68216;SDS011;55037;52.354;4.992;2023-04-15T11:38:03;5.33;;;3.87;;
68216;SDS011;55037;52.354;4.992;2023-04-15T11:40:34;5.07;;;3.17;;
68216;SDS011;55037;52.354;4.992;2023-04-15T11:43:08;4.63;;;3.25;;
68216;SDS011;55037;52.354;4.992;2023-04-15T11:45:46;5.32;;;3.40;;
68216;SDS011;55037;52.354;4.992;2023-04-15T11:48:13;5.05;;;3.38;;
68216;SDS011;55037;52.354;4.992;2023-04-15T11:50:41;4.67;;;2.80;;
68216;SDS011;55037;52.354;4.992;2023-04-15T11:53:09;5.10;;;2.95;;
68216;SDS011;55037;52.354;4.992;2023-04-15T11:55:41;5.25;;;3.30;;
68216;SDS011;55037;52.354;4.992;2023-04-15T12:03:23;4.33;;;2.97;;
68216;SDS011;55037;52.354;4.992;2023-04-15T12:14:03;4.65;;;2.67;;
68216;SDS011;55037;52.354;4.992;2023-04-15T12:16:37;4.03;;;2.67;;
68216;SDS011;55037;52.354;4.992;2023-04-15T12:19:16;3.92;;;3.10;;
68216;SDS011;55037;52.354;4.992;2023-04-15T12:21:47;5.15;;;3.05;;
68216;SDS011;55037;52.354;4.992;2023-04-15T12:24:18;4.65;;;2.70;;
68216;SDS011;55037;52.354;4.992;2023-04-15T12:26:51;4.95;;;3.55;;
68216;SDS011;55037;52.354;4.992;2023-04-15T12:29:23;4.20;;;2.70;;
68216;SDS011;55037;52.354;4.992;2023-04-15T12:31:53;7.53;;;2.47;;
68216;SDS011;55037;52.354;4.992;2023-04-15T12:34:29;4.35;;;2.20;;
68216;SDS011;55037;52.354;4.992;2023-04-15T12:36:58;4.47;;;2.58;;
68216;SDS011;55037;52.354;4.992;2023-04-15T12:39:28;4.97;;;3.58;;
68216;SDS011;55037;52.354;4.992;2023-04-15T12:41:58;4.30;;;2.80;;
68216;SDS011;55037;52.354;4.992;2023-04-15T12:44:28;6.47;;;2.65;;
68216;SDS011;55037;52.354;4.992;2023-04-15T12:46:55;5.80;;;2.97;;
68216;SDS011;55037;52.354;4.992;2023-04-15T12:49:23;4.95;;;2.80;;
68216;SDS011;55037;52.354;4.992;2023-04-15T12:51:52;4.22;;;2.90;;
68216;SDS011;55037;52.354;4.992;2023-04-15T12:54:21;4.80;;;2.77;;
68216;SDS011;55037;52.354;4.992;2023-04-15T12:56:48;6.45;;;2.80;;
68216;SDS011;55037;52.354;4.992;2023-04-15T12:59:17;5.80;;;2.90;;
68216;SDS011;55037;52.354;4.992;2023-04-15T13:01:45;5.57;;;2.70;;
68216;SDS011;55037;52.354;4.992;2023-04-15T13:04:14;5.97;;;2.90;;
68216;SDS011;55037;52.354;4.992;2023-04-15T13:06:42;4.07;;;2.60;;
68216;SDS011;55037;52.354;4.992;2023-04-15T13:09:10;4.57;;;2.55;;
68216;SDS011;55037;52.354;4.992;2023-04-15T13:11:37;4.53;;;2.65;;
68216;SDS011;55037;52.354;4.992;2023-04-15T13:14:05;4.20;;;2.60;;
68216;SDS011;55037;52.354;4.992;2023-04-15T13:16:34;5.10;;;2.50;;
68216;SDS011;55037;52.354;4.992;2023-04-15T13:19:02;5.17;;;3.03;;
68216;SDS011;55037;52.354;4.992;2023-04-15T13:21:29;3.85;;;2.10;;
68216;SDS011;55037;52.354;4.992;2023-04-15T13:24:01;4.03;;;2.40;;
68216;SDS011;55037;52.354;4.992;2023-04-15T13:26:30;3.97;;;2.42;;
68216;SDS011;55037;52.354;4.992;2023-04-15T13:28:58;4.57;;;2.60;;
68216;SDS011;55037;52.354;4.992;2023-04-15T13:31:26;3.30;;;2.20;;
68216;SDS011;55037;52.354;4.992;2023-04-15T13:33:55;3.83;;;2.03;;
68216;SDS011;55037;52.354;4.992;2023-04-15T13:36:22;4.53;;;2.35;;
68216;SDS011;55037;52.354;4.992;2023-04-15T13:38:49;3.70;;;2.05;;
68216;SDS011;55037;52.354;4.992;2023-04-15T13:41:17;3.88;;;1.98;;
68216;SDS011;55037;52.354;4.992;2023-04-15T13:43:45;4.93;;;1.70;;
68216;SDS011;55037;52.354;4.992;2023-04-15T13:46:13;5.15;;;2.20;;
68216;SDS011;55037;52.354;4.992;2023-04-15T13:48:40;4.20;;;2.28;;
68216;SDS011;55037;52.354;4.992;2023-04-15T13:51:08;4.75;;;1.90;;
68216;SDS011;55037;52.354;4.992;2023-04-15T13:53:35;5.38;;;2.10;;
68216;SDS011;55037;52.354;4.992;2023-04-15T13:56:08;5.88;;;1.65;;
68216;SDS011;55037;52.354;4.992;2023-04-15T13:58:36;5.03;;;2.25;;
68216;SDS011;55037;52.354;4.992;2023-04-15T14:01:04;5.60;;;1.73;;
68216;SDS011;55037;52.354;4.992;2023-04-15T14:03:33;3.88;;;1.67;;
68216;SDS011;55037;52.354;4.992;2023-04-15T14:06:03;5.47;;;1.95;;
68216;SDS011;55037;52.354;4.992;2023-04-15T14:08:31;5.40;;;1.92;;
68216;SDS011;55037;52.354;4.992;2023-04-15T14:10:58;4.32;;;1.75;;
68216;SDS011;55037;52.354;4.992;2023-04-15T14:13:26;6.78;;;2.50;;
68216;SDS011;55037;52.354;4.992;2023-04-15T14:15:53;6.68;;;2.08;;
68216;SDS011;55037;52.354;4.992;2023-04-15T14:18:20;6.50;;;2.25;;
68216;SDS011;55037;52.354;4.992;2023-04-15T14:20:47;6.30;;;1.70;;
68216;SDS011;55037;52.354;4.992;2023-04-15T14:23:15;5.57;;;1.77;;
68216;SDS011;55037;52.354;4.992;2023-04-15T14:25:42;5.28;;;2.05;;
68216;SDS011;55037;52.354;4.992;2023-04-15T14:28:12;5.00;;;1.98;;
68216;SDS011;55037;52.354;4.992;2023-04-15T14:30:39;4.40;;;1.60;;
68216;SDS011;55037;52.354;4.992;2023-04-15T14:33:07;7.10;;;2.17;;
68216;SDS011;55037;52.354;4.992;2023-04-15T14:35:34;7.70;;;1.90;;
68216;SDS011;55037;52.354;4.992;2023-04-15T14:38:02;4.78;;;1.70;;
68216;SDS011;55037;52.354;4.992;2023-04-15T14:40:29;5.65;;;1.65;;
68216;SDS011;55037;52.354;4.992;2023-04-15T14:42:56;5.65;;;1.80;;
68216;SDS011;55037;52.354;4.992;2023-04-15T14:45:24;6.78;;;2.10;;
68216;SDS011;55037;52.354;4.992;2023-04-15T14:47:51;5.15;;;2.00;;
68216;SDS011;55037;52.354;4.992;2023-04-15T14:50:19;6.68;;;2.42;;
68216;SDS011;55037;52.354;4.992;2023-04-15T14:52:46;8.45;;;2.20;;
68216;SDS011;55037;52.354;4.992;2023-04-15T14:55:14;6.22;;;2.30;;
68216;SDS011;55037;52.354;4.992;2023-04-15T14:57:41;5.68;;;1.98;;
68216;SDS011;55037;52.354;4.992;2023-04-15T15:00:09;8.45;;;2.10;;
68216;SDS011;55037;52.354;4.992;2023-04-15T15:02:41;7.32;;;2.22;;
68216;SDS011;55037;52.354;4.992;2023-04-15T15:05:09;8.65;;;2.55;;
68216;SDS011;55037;52.354;4.992;2023-04-15T15:07:38;6.65;;;2.30;;
68216;SDS011;55037;52.354;4.992;2023-04-15T15:10:06;7.45;;;1.70;;
68216;SDS011;55037;52.354;4.992;2023-04-15T15:12:34;7.03;;;2.10;;
68216;SDS011;55037;52.354;4.992;2023-04-15T15:15:01;7.32;;;2.22;;
68216;SDS011;55037;52.354;4.992;2023-04-15T15:17:38;8.85;;;2.13;;
68216;SDS011;55037;52.354;4.992;2023-04-15T15:20:05;5.60;;;2.00;;